Time;durP1;ratioP1;P1;durP2;ratioP2;P2;SDS_P1;SDS_P2;PMS_P1;PMS_P2;Temp;Humidity;BMP_temperature;BMP_pressure;BME280_temperature;BME280_humidity;BME280_pressure;Samples;Min_cycle;Max_cycle;Signal;HPM_P1;HPM_P2
2022/04/01 00:01:18;;;;;;;20.85;7.62;;;;;;;1.45;100.00;97186.29;2138275;83;21079;-61
2022/04/01 00:04:20;;;;;;;28.53;10.47;;;;;;;1.51;100.00;97181.66;2138207;83;21126;-60
2022/04/01 00:07:22;;;;;;;24.43;9.05;;;;;;;1.48;100.00;97174.51;2138047;83;21014;-61
2022/04/01 00:10:23;;;;;;;24.32;10.05;;;;;;;1.49;100.00;97164.55;2138466;83;21022;-60
2022/04/01 00:13:25;;;;;;;22.93;8.80;;;;;;;1.45;100.00;97165.19;2137868;83;21249;-61
2022/04/01 00:16:26;;;;;;;21.25;8.43;;;;;;;1.42;100.00;97166.61;2138325;83;20979;-60
2022/04/01 00:19:28;;;;;;;20.77;7.80;;;;;;;1.42;100.00;97160.61;2138127;83;20983;-61
2022/04/01 00:22:29;;;;;;;21.55;7.40;;;;;;;1.40;100.00;97161.16;2138250;83;21502;-60
2022/04/01 00:25:31;;;;;;;21.12;7.95;;;;;;;1.45;100.00;97159.16;2138127;83;21040;-61
2022/04/01 00:28:32;;;;;;;21.37;8.53;;;;;;;1.43;100.00;97141.63;2138268;83;21530;-60
2022/04/01 00:31:34;;;;;;;21.60;7.90;;;;;;;1.33;100.00;97148.53;2138226;83;21070;-61
2022/04/01 00:34:36;;;;;;;21.45;8.63;;;;;;;1.44;100.00;97149.73;2137968;83;21018;-61
2022/04/01 00:37:38;;;;;;;22.52;8.15;;;;;;;1.44;100.00;97139.39;2131976;83;20984;-61
2022/04/01 00:40:39;;;;;;;25.55;8.90;;;;;;;1.43;100.00;97140.33;2127488;84;21474;-61
2022/04/01 00:43:41;;;;;;;20.47;8.13;;;;;;;1.45;100.00;97140.64;2127387;84;21018;-61
2022/04/01 00:46:42;;;;;;;20.30;7.90;;;;;;;1.48;100.00;97132.73;2127456;84;21550;-61
2022/04/01 00:49:44;;;;;;;19.87;7.70;;;;;;;1.50;100.00;97139.92;2127169;84;21067;-60
2022/04/01 00:52:45;;;;;;;27.55;9.58;;;;;;;1.47;100.00;97127.64;2127198;84;21571;-61
2022/04/01 00:55:47;;;;;;;22.05;7.78;;;;;;;1.16;100.00;97135.63;2127402;84;21002;-60
2022/04/01 00:58:49;;;;;;;25.62;9.50;;;;;;;1.35;100.00;97132.52;2127012;84;21103;-60
2022/04/01 01:01:51;;;;;;;22.00;7.83;;;;;;;1.29;100.00;97135.85;2127282;84;21126;-61
2022/04/01 01:04:52;;;;;;;21.80;8.25;;;;;;;1.31;100.00;97122.42;2127198;84;21063;-60
2022/04/01 01:07:53;;;;;;;21.30;8.55;;;;;;;1.33;100.00;97125.28;2127374;84;21598;-61
2022/04/01 01:10:55;;;;;;;24.90;10.68;;;;;;;1.36;100.00;97121.24;2126832;84;21126;-61
2022/04/01 01:13:57;;;;;;;29.70;11.55;;;;;;;1.45;100.00;97132.89;2127496;84;21527;-61
2022/04/01 01:16:59;;;;;;;24.67;9.33;;;;;;;1.42;100.00;97120.56;2127281;84;20987;-61
2022/04/01 01:20:01;;;;;;;24.75;9.45;;;;;;;1.45;100.00;97119.11;2127164;84;21059;-61
2022/04/01 01:23:02;;;;;;;23.07;8.78;;;;;;;1.54;100.00;97118.66;2127570;84;20977;-60
2022/04/01 01:26:04;;;;;;;22.17;8.90;;;;;;;1.58;100.00;97118.88;2127158;84;21091;-60
2022/04/01 01:29:06;;;;;;;19.23;7.45;;;;;;;1.50;100.00;97112.80;2127291;84;21033;-61
2022/04/01 01:32:09;;;;;;;21.42;7.75;;;;;;;1.54;100.00;97115.61;2127233;84;21551;-60
2022/04/01 01:35:11;;;;;;;21.25;8.30;;;;;;;1.56;100.00;97117.64;2127352;84;20984;-60
2022/04/01 01:38:13;;;;;;;19.73;7.00;;;;;;;1.53;100.00;97111.80;2133899;83;21147;-61
2022/04/01 01:41:14;;;;;;;18.73;7.15;;;;;;;1.51;100.00;97113.18;2138128;83;21083;-60
2022/04/01 01:44:16;;;;;;;21.60;7.92;;;;;;;1.48;100.00;97110.77;2138305;83;20991;-60
2022/04/01 01:47:18;;;;;;;17.85;6.25;;;;;;;1.52;100.00;97110.98;2137698;83;21079;-61
2022/04/01 01:56:26;;;;;;;18.17;6.78;;;;;;;1.40;100.00;97099.98;2113583;83;20987;-60
2022/04/01 01:59:28;;;;;;;20.05;7.80;;;;;;;1.42;100.00;97098.13;2138158;83;21011;-60
2022/04/01 02:02:29;;;;;;;19.75;7.15;;;;;;;1.42;100.00;97099.89;2138281;83;21083;-61
2022/04/01 02:05:30;;;;;;;19.98;7.10;;;;;;;1.42;100.00;97097.31;2137890;83;21110;-61
2022/04/01 02:08:32;;;;;;;19.32;6.55;;;;;;;1.45;100.00;97104.47;2138188;83;21462;-61
2022/04/01 02:11:34;;;;;;;23.12;8.65;;;;;;;1.45;100.00;97098.00;2138179;83;21062;-60
2022/04/01 02:14:36;;;;;;;19.60;6.87;;;;;;;1.48;100.00;97091.81;2138422;83;21022;-61
2022/04/01 02:17:38;;;;;;;20.85;7.15;;;;;;;1.43;100.00;97081.73;2138128;83;21014;-61
2022/04/01 02:20:40;;;;;;;21.00;7.40;;;;;;;1.51;100.00;97085.23;2138222;83;20987;-61
2022/04/01 02:23:41;;;;;;;20.80;7.60;;;;;;;1.41;100.00;97085.30;2138258;83;20994;-61
2022/04/01 02:26:43;;;;;;;18.00;6.40;;;;;;;1.40;100.00;97088.35;2138344;83;21014;-61
2022/04/01 02:29:45;;;;;;;17.80;6.10;;;;;;;1.36;100.00;97090.71;2138034;83;20986;-62
2022/04/01 02:32:47;;;;;;;18.50;6.40;;;;;;;1.32;100.00;97084.88;2138366;83;21019;-61
2022/04/01 02:35:50;;;;;;;16.48;5.65;;;;;;;1.40;100.00;97087.06;2138194;83;21026;-60
2022/04/01 02:38:53;;;;;;;18.77;5.95;;;;;;;1.28;100.00;97088.97;2129631;83;21123;-60
2022/04/01 02:41:55;;;;;;;17.62;5.97;;;;;;;1.40;100.00;97083.66;2127276;84;21019;-61
2022/04/01 02:44:57;;;;;;;17.85;5.47;;;;;;;1.41;100.00;97085.30;2127466;84;21111;-61
2022/04/01 02:47:59;;;;;;;18.45;5.90;;;;;;;1.46;100.00;97088.49;2127424;84;21519;-60
2022/04/01 02:51:00;;;;;;;15.70;5.20;;;;;;;1.38;100.00;97089.72;2127374;84;21020;-60
2022/04/01 02:54:03;;;;;;;16.17;5.03;;;;;;;1.30;100.00;97084.11;2127261;84;21031;-60
2022/04/01 02:57:05;;;;;;;18.65;5.10;;;;;;;1.18;100.00;97086.05;2127327;84;21546;-60
2022/04/01 03:00:09;;;;;;;15.78;4.85;;;;;;;1.18;100.00;97086.05;2127488;84;20988;-60
2022/04/01 03:03:09;;;;;;;13.22;4.45;;;;;;;1.12;100.00;97087.63;2099768;84;21036;-60
2022/04/01 03:06:11;;;;;;;15.00;4.60;;;;;;;1.18;100.00;97080.41;2127628;84;21501;-61
2022/04/01 03:09:12;;;;;;;18.37;5.80;;;;;;;1.14;100.00;97087.11;2127383;84;21048;-60
2022/04/01 03:12:14;;;;;;;13.30;4.57;;;;;;;1.25;100.00;97085.25;2127455;84;21566;-60
2022/04/01 03:15:16;;;;;;;14.95;4.95;;;;;;;1.28;100.00;97088.53;2127714;84;20968;-60
2022/04/01 03:18:18;;;;;;;14.05;4.53;;;;;;;1.32;100.00;97086.17;2127239;84;21062;-61
2022/04/01 03:21:20;;;;;;;15.65;4.78;;;;;;;1.23;100.00;97093.09;2127177;84;21060;-61
2022/04/01 03:24:22;;;;;;;16.60;4.85;;;;;;;1.27;100.00;97089.91;2127203;84;21107;-60
2022/04/01 03:27:23;;;;;;;14.30;4.50;;;;;;;1.29;100.00;97092.77;2127775;84;20984;-61
2022/04/01 03:30:25;;;;;;;22.07;6.50;;;;;;;1.25;100.00;97083.97;2127247;84;20979;-61
2022/04/01 03:36:30;;;;;;;18.20;5.42;;;;;;;1.19;100.00;97083.81;2099643;84;21024;-61
2022/04/01 03:39:32;;;;;;;17.50;5.40;;;;;;;1.10;100.00;97085.59;2137069;83;21611;-61
2022/04/01 03:42:33;;;;;;;14.47;4.72;;;;;;;1.15;100.00;97087.03;2138172;83;20964;-61
2022/04/01 03:45:35;;;;;;;15.63;5.10;;;;;;;1.27;100.00;97095.07;2138036;83;21070;-61
2022/04/01 03:48:36;;;;;;;15.00;4.90;;;;;;;1.18;100.00;97084.75;2138290;83;21051;-61
2022/04/01 03:51:38;;;;;;;17.50;5.30;;;;;;;1.16;100.00;97086.56;2138134;83;21070;-60
2022/04/01 03:54:40;;;;;;;15.90;5.20;;;;;;;1.12;100.00;97087.63;2138371;83;21038;-60
2022/04/01 03:57:41;;;;;;;18.10;5.80;;;;;;;1.15;100.00;97100.38;2138264;83;21078;-61
2022/04/01 04:00:43;;;;;;;16.57;5.50;;;;;;;1.16;100.00;97103.34;2138095;83;21060;-61
2022/04/01 04:03:45;;;;;;;15.32;5.17;;;;;;;1.08;100.00;97101.16;2138004;83;21094;-60
2022/04/01 04:06:46;;;;;;;14.73;4.83;;;;;;;1.15;100.00;97093.92;2138373;83;21051;-60
2022/04/01 04:09:48;;;;;;;15.53;4.62;;;;;;;1.14;100.00;97088.41;2138095;83;21086;-61
2022/04/01 04:12:49;;;;;;;16.50;4.95;;;;;;;1.13;100.00;97082.37;2138353;83;20963;-60
2022/04/01 04:15:51;;;;;;;16.73;4.83;;;;;;;1.12;100.00;97094.08;2138253;83;21039;-61
2022/04/01 04:18:52;;;;;;;14.90;4.73;;;;;;;1.09;100.00;97098.11;2138401;83;21101;-60
2022/04/01 04:21:54;;;;;;;16.27;4.83;;;;;;;1.06;100.00;97096.98;2137767;83;21079;-60
2022/04/01 04:24:56;;;;;;;15.48;4.75;;;;;;;1.10;100.00;97093.34;2138381;83;21525;-61
2022/04/01 04:28:00;;;;;;;15.23;4.80;;;;;;;1.04;100.00;97095.77;2113601;83;21004;-60
2022/04/01 04:31:03;;;;;;;17.50;5.35;;;;;;;1.14;100.00;97088.41;2138113;83;21043;-61
2022/04/01 04:34:05;;;;;;;15.15;5.10;;;;;;;1.14;100.00;97091.80;2137955;83;21545;-60
2022/04/01 04:37:10;;;;;;;16.10;5.42;;;;;;;1.09;100.00;97094.23;2138003;83;21059;-61
2022/04/01 04:40:12;;;;;;;15.30;5.25;;;;;;;1.09;100.00;97089.90;2113652;83;20983;-60
2022/04/01 04:43:14;;;;;;;17.62;5.70;;;;;;;1.02;100.00;97095.84;2113619;83;21035;-61
2022/04/01 04:46:16;;;;;;;16.37;5.53;;;;;;;1.15;100.00;97093.92;2137968;83;21024;-60
2022/04/01 04:49:18;;;;;;;17.13;5.83;;;;;;;1.10;100.00;97102.38;2138486;83;21526;-61
2022/04/01 04:52:19;;;;;;;16.70;5.62;;;;;;;1.03;100.00;97107.86;2138214;83;20991;-60
2022/04/01 04:55:21;;;;;;;15.75;5.03;;;;;;;1.03;100.00;97100.11;2137958;83;20987;-60
2022/04/01 04:58:22;;;;;;;18.20;5.78;;;;;;;1.11;100.00;97105.34;2138369;83;21024;-61
2022/04/01 05:01:25;;;;;;;18.60;5.30;;;;;;;1.06;100.00;97100.86;2137949;83;21133;-60
2022/04/01 05:04:26;;;;;;;15.40;4.87;;;;;;;0.93;100.00;97098.05;2137925;83;21055;-61
2022/04/01 05:07:29;;;;;;;16.20;5.50;;;;;;;0.89;100.00;97102.55;2138136;83;21610;-60
2022/04/01 05:10:31;;;;;;;16.95;6.00;;;;;;;0.95;100.00;97109.98;2137943;83;21075;-61
2022/04/01 05:13:32;;;;;;;15.58;5.53;;;;;;;0.96;100.00;97112.09;2138164;83;21058;-61
2022/04/01 05:16:35;;;;;;;16.82;5.25;;;;;;;0.97;100.00;97115.89;2138181;83;21111;-61
2022/04/01 05:19:37;;;;;;;16.32;5.33;;;;;;;1.00;100.00;97118.78;2138177;83;21051;-60
2022/04/01 05:22:38;;;;;;;15.43;5.40;;;;;;;0.98;100.00;97117.56;2138156;83;21072;-60
2022/04/01 05:25:40;;;;;;;16.73;5.12;;;;;;;1.02;100.00;97117.80;2138073;83;20967;-61
2022/04/01 05:28:41;;;;;;;14.25;4.67;;;;;;;0.97;100.00;97117.17;2137980;83;21055;-60
2022/04/01 05:31:42;;;;;;;15.00;4.72;;;;;;;1.01;100.00;97119.17;2137930;83;21516;-60
2022/04/01 05:34:44;;;;;;;16.07;4.50;;;;;;;1.09;100.00;97118.77;2138184;83;21094;-60
2022/04/01 05:37:46;;;;;;;13.25;4.47;;;;;;;1.08;100.00;97124.84;2138225;83;21562;-61
2022/04/01 05:40:47;;;;;;;16.20;4.72;;;;;;;1.10;100.00;97127.73;2138180;83;21103;-61
2022/04/01 05:43:50;;;;;;;13.13;4.50;;;;;;;1.19;100.00;97120.83;2138119;83;21609;-60
2022/04/01 05:46:51;;;;;;;15.32;4.67;;;;;;;1.11;100.00;97127.30;2138186;83;20980;-61
2022/04/01 05:49:54;;;;;;;14.47;4.85;;;;;;;1.16;100.00;97128.70;2138582;83;20987;-61
2022/04/01 05:52:55;;;;;;;15.58;4.35;;;;;;;1.06;100.00;97127.50;2138401;83;21011;-61
2022/04/01 05:55:57;;;;;;;14.15;4.30;;;;;;;1.07;100.00;97120.61;2138589;83;21489;-60
2022/04/01 05:58:59;;;;;;;13.22;4.60;;;;;;;1.07;100.00;97128.36;2138409;83;20978;-61
2022/04/01 06:02:00;;;;;;;12.00;4.00;;;;;;;1.18;100.00;97118.33;2138193;83;21525;-60
2022/04/01 06:05:03;;;;;;;14.18;4.87;;;;;;;1.13;100.00;97124.99;2138330;83;21018;-61
2022/04/01 06:08:05;;;;;;;17.95;5.62;;;;;;;1.15;100.00;97121.89;2138420;83;21015;-60
2022/04/01 06:11:06;;;;;;;16.20;4.97;;;;;;;1.20;100.00;97113.91;2137934;83;21134;-61
2022/04/01 06:14:08;;;;;;;15.65;5.30;;;;;;;1.24;100.00;97121.89;2138296;83;21483;-61
2022/04/01 06:17:09;;;;;;;16.30;5.20;;;;;;;1.25;100.00;97118.83;2138146;83;21010;-61
2022/04/01 06:20:11;;;;;;;15.73;5.13;;;;;;;1.36;100.00;97126.41;2138360;83;21055;-61
2022/04/01 06:23:14;;;;;;;13.60;4.60;;;;;;;1.32;100.00;97115.03;2138365;83;20987;-61
2022/04/01 06:26:16;;;;;;;13.85;4.90;;;;;;;1.47;100.00;97119.89;2113764;83;20987;-61
2022/04/01 06:29:18;;;;;;;14.53;5.15;;;;;;;1.59;100.00;97126.16;2137921;83;21526;-61
2022/04/01 06:32:19;;;;;;;13.15;4.50;;;;;;;1.49;100.00;97116.75;2138233;83;21032;-61
2022/04/01 06:35:21;;;;;;;15.20;4.75;;;;;;;1.49;100.00;97124.03;2138067;83;21010;-60
2022/04/01 06:38:22;;;;;;;15.70;4.90;;;;;;;1.58;100.00;97116.30;2138055;83;21042;-60
2022/04/01 06:41:24;;;;;;;14.33;4.60;;;;;;;1.59;100.00;97116.65;2138284;83;21038;-60
2022/04/01 06:44:25;;;;;;;16.75;5.33;;;;;;;1.69;100.00;97135.11;2138465;83;20995;-61
2022/04/01 06:47:27;;;;;;;15.08;4.67;;;;;;;1.72;100.00;97133.64;2137851;83;21044;-61
2022/04/01 06:50:28;;;;;;;14.50;4.58;;;;;;;1.89;100.00;97135.35;2138490;83;21455;-60
2022/04/01 06:53:30;;;;;;;14.07;4.80;;;;;;;1.95;100.00;97137.61;2138058;83;20970;-61
2022/04/01 06:56:31;;;;;;;13.62;4.58;;;;;;;2.09;100.00;97131.70;2138550;83;21533;-61
2022/04/01 06:59:34;;;;;;;14.10;4.85;;;;;;;2.25;100.00;97131.70;2138292;83;21003;-61
2022/04/01 07:02:36;;;;;;;17.15;5.25;;;;;;;2.22;100.00;97136.59;2138225;83;21000;-61
2022/04/01 07:05:37;;;;;;;15.13;5.10;;;;;;;2.32;100.00;97132.22;2138197;83;21525;-61
2022/04/01 07:22:49;;;;;;;14.63;5.08;;;;;;;2.77;100.00;97117.18;2238733;79;22599;-61
2022/04/01 07:25:49;;;;;;;18.05;5.75;;;;;;;2.66;100.00;97116.09;2189003;80;21566;-60
2022/04/01 07:28:50;;;;;;;15.20;5.90;;;;;;;2.59;100.00;97113.03;2189307;81;21076;-61
2022/04/01 07:34:52;;;;;;;17.62;6.22;;;;;;;2.50;100.00;97126.47;2131345;83;20999;-61
2022/04/01 07:37:53;;;;;;;16.65;5.90;;;;;;;2.40;100.00;97124.41;2147518;83;21027;-60
2022/04/01 07:40:53;;;;;;;15.45;5.42;;;;;;;2.34;100.00;97130.37;2147574;83;20995;-61
2022/04/01 08:05:30;;;;;;;19.57;6.92;;;;;;;2.57;100.00;97127.36;2299463;77;22206;-61
2022/04/01 08:08:32;;;;;;;18.07;6.30;;;;;;;2.54;100.00;97122.80;2264353;78;21019;-61
2022/04/01 08:11:33;;;;;;;18.07;6.28;;;;;;;2.43;100.00;97133.77;2298119;77;20995;-60
2022/04/01 08:14:36;;;;;;;19.32;6.90;;;;;;;2.29;100.00;97133.69;2304276;77;21000;-61
2022/04/01 08:17:36;;;;;;;18.20;6.60;;;;;;;2.29;100.00;97136.27;2277298;77;20988;-60
2022/04/01 08:20:36;;;;;;;18.75;6.65;;;;;;;2.36;100.00;97141.02;2304961;77;20991;-60
2022/04/01 08:23:37;;;;;;;17.65;5.70;;;;;;;2.37;100.00;97144.43;2302399;77;21465;-61
2022/04/01 08:26:38;;;;;;;18.35;6.58;;;;;;;2.42;100.00;97143.73;2299349;77;21524;-60
2022/04/01 08:29:38;;;;;;;19.23;6.75;;;;;;;2.28;100.00;97142.36;2295213;77;20937;-61
2022/04/01 08:32:39;;;;;;;19.57;6.80;;;;;;;2.20;100.00;97132.44;2307351;77;21008;-61
2022/04/01 08:35:40;;;;;;;18.62;5.78;;;;;;;2.19;100.00;97144.98;2303325;77;20972;-60
2022/04/01 08:38:40;;;;;;;18.20;6.10;;;;;;;2.19;100.00;97148.39;2297193;77;21008;-61
2022/04/01 08:54:39;;;;;;;17.55;6.00;;;;;;;2.61;100.00;97147.42;2232006;79;22165;-61
2022/04/01 08:57:41;;;;;;;17.42;5.90;;;;;;;2.46;100.00;97147.83;2195060;81;21031;-61
2022/04/01 09:00:41;;;;;;;18.45;6.78;;;;;;;2.40;100.00;97152.88;2265345;78;20916;-61
2022/04/01 09:03:42;;;;;;;18.07;6.50;;;;;;;2.40;100.00;97157.23;2265415;79;21015;-61
2022/04/01 09:06:42;;;;;;;18.02;6.33;;;;;;;2.27;100.00;97150.59;2265573;79;20990;-61
2022/04/01 09:09:43;;;;;;;18.02;6.40;;;;;;;2.28;100.00;97154.83;2265423;79;20939;-61
2022/04/01 09:12:43;;;;;;;19.30;6.78;;;;;;;2.32;100.00;97147.74;2265396;79;21008;-60
2022/04/01 09:15:44;;;;;;;19.02;6.30;;;;;;;2.54;100.00;97156.45;2265373;79;21529;-61
2022/04/01 09:18:46;;;;;;;18.07;6.40;;;;;;;2.46;100.00;97149.12;2265664;79;21485;-61
2022/04/01 09:21:49;;;;;;;17.07;6.37;;;;;;;2.40;100.00;97154.64;2265365;79;21076;-61
2022/04/01 09:24:49;;;;;;;17.95;6.12;;;;;;;2.36;100.00;97153.95;2234682;79;21434;-61
2022/04/01 09:27:50;;;;;;;19.98;7.90;;;;;;;2.22;100.00;97150.81;2265408;79;20939;-61
2022/04/01 09:30:51;;;;;;;19.42;7.70;;;;;;;2.14;100.00;97146.97;2265524;79;21075;-61
2022/04/01 09:33:52;;;;;;;19.90;6.83;;;;;;;2.14;100.00;97148.27;2265266;79;21502;-60
2022/04/01 09:36:52;;;;;;;19.00;6.97;;;;;;;2.17;100.00;97154.56;2265248;79;20991;-60
2022/04/01 09:39:53;;;;;;;24.80;8.28;;;;;;;2.16;100.00;97149.03;2265371;79;21075;-60
2022/04/01 09:42:53;;;;;;;22.25;8.48;;;;;;;2.29;100.00;97150.03;2265541;79;20999;-60
2022/04/01 09:45:54;;;;;;;17.25;6.20;;;;;;;2.25;100.00;97146.77;2265515;79;20940;-61
2022/04/01 09:48:54;;;;;;;27.55;9.05;;;;;;;2.21;100.00;97154.78;2265300;79;21059;-60
2022/04/01 09:51:55;;;;;;;19.57;7.45;;;;;;;1.99;100.00;97157.22;2265283;79;20951;-61
2022/04/01 09:54:55;;;;;;;18.92;7.30;;;;;;;1.96;100.00;97169.49;2264667;79;21449;-60
2022/04/01 09:57:56;;;;;;;19.77;6.90;;;;;;;1.88;100.00;97168.58;2264547;79;21489;-60
2022/04/01 10:00:56;;;;;;;19.90;7.50;;;;;;;2.01;100.00;97168.77;2264535;79;20944;-61
2022/04/01 10:03:57;;;;;;;20.80;7.85;;;;;;;2.19;100.00;97168.27;2264574;79;20979;-60
2022/04/01 10:06:58;;;;;;;18.10;6.55;;;;;;;2.29;100.00;97169.44;2264728;79;21008;-61
2022/04/01 10:09:58;;;;;;;18.57;7.10;;;;;;;2.42;100.00;97164.44;2264650;79;20987;-61
2022/04/01 10:12:59;;;;;;;19.87;7.55;;;;;;;2.35;100.00;97166.98;2264621;79;21442;-60
2022/04/01 10:15:59;;;;;;;19.20;7.55;;;;;;;2.47;100.00;97170.64;2264555;79;21510;-61
2022/04/01 10:19:00;;;;;;;19.10;6.83;;;;;;;2.51;100.00;97163.09;2264453;79;21510;-61
2022/04/01 10:22:01;;;;;;;19.80;7.28;;;;;;;2.77;100.00;97167.67;2264662;79;21087;-60
2022/04/01 10:25:03;;;;;;;18.82;7.20;;;;;;;2.98;100.00;97169.14;2264283;79;21047;-60
2022/04/01 10:28:04;;;;;;;18.87;7.60;;;;;;;3.11;100.00;97164.45;2264730;79;21022;-61
2022/04/01 10:31:05;;;;;;;18.45;7.40;;;;;;;3.15;100.00;97169.02;2264455;79;21407;-60
2022/04/01 10:34:06;;;;;;;20.50;7.70;;;;;;;3.37;100.00;97162.59;2264858;79;20925;-61
2022/04/01 10:37:06;;;;;;;19.27;6.90;;;;;;;3.36;100.00;97158.31;2264504;79;20991;-61
2022/04/01 10:40:07;;;;;;;18.17;7.10;;;;;;;3.31;100.00;97160.36;2264635;79;20947;-61
2022/04/01 10:43:07;;;;;;;19.52;7.55;;;;;;;3.33;100.00;97167.09;2264333;79;21592;-61
2022/04/01 10:46:08;;;;;;;20.12;7.75;;;;;;;3.33;100.00;97164.51;2264482;79;21446;-61
2022/04/01 10:52:11;;;;;;;18.25;6.42;;;;;;;3.31;100.00;97166.37;2233387;78;21426;-61
2022/04/01 10:55:12;;;;;;;18.40;6.67;;;;;;;3.39;100.00;97175.84;2264469;79;20999;-61
2022/04/01 10:58:13;;;;;;;20.62;7.70;;;;;;;3.36;100.00;97169.54;2264735;79;20943;-61
2022/04/01 11:01:13;;;;;;;20.12;7.45;;;;;;;3.58;100.00;97170.40;2264440;79;20995;-61
2022/04/01 11:04:14;;;;;;;19.73;7.35;;;;;;;3.66;100.00;97172.53;2264608;79;21546;-61
2022/04/01 11:07:14;;;;;;;19.87;7.17;;;;;;;3.78;100.00;97174.88;2264423;79;20947;-61
2022/04/01 11:10:15;;;;;;;20.15;7.65;;;;;;;3.72;100.00;97173.48;2264483;79;21083;-61
2022/04/01 11:13:16;;;;;;;19.48;7.05;;;;;;;3.64;100.00;97174.39;2264204;79;21004;-61
2022/04/01 11:16:16;;;;;;;18.20;6.92;;;;;;;3.76;100.00;97172.34;2264568;79;20983;-61
2022/04/01 11:19:17;;;;;;;19.82;7.80;;;;;;;3.56;100.00;97183.93;2264505;79;20980;-61
2022/04/01 11:22:18;;;;;;;20.40;8.18;;;;;;;3.50;100.00;97174.37;2264536;79;21497;-61
2022/04/01 11:25:18;;;;;;;18.77;6.90;;;;;;;3.60;100.00;97178.91;2264720;79;21035;-61
2022/04/01 11:46:31;;;;;;;17.65;6.40;;;;;;;4.56;100.00;97180.09;2270978;77;28522;-61
2022/04/01 11:49:32;;;;;;;18.60;7.20;;;;;;;4.51;100.00;97190.30;2216777;80;28615;-61
2022/04/01 11:52:34;;;;;;;18.25;7.30;;;;;;;4.58;100.00;97182.11;2237071;79;20968;-61
2022/04/01 11:55:34;;;;;;;19.45;7.30;;;;;;;4.20;100.00;97182.75;2236616;79;21084;-61
2022/04/01 11:58:35;;;;;;;18.77;7.17;;;;;;;4.05;100.00;97179.31;2236780;80;20957;-61
2022/04/01 12:01:35;;;;;;;19.52;7.10;;;;;;;3.72;100.00;97176.52;2236649;79;21510;-61
2022/04/01 12:04:38;;;;;;;18.95;6.80;;;;;;;3.55;100.00;97172.32;2236590;79;21008;-61
2022/04/01 12:10:40;;;;;;;18.35;6.83;;;;;;;4.02;100.00;97169.12;2219231;80;21009;-61
2022/04/01 12:13:41;;;;;;;18.17;6.87;;;;;;;4.39;100.00;97173.35;2236496;79;21582;-61
2022/04/01 12:16:41;;;;;;;19.25;7.15;;;;;;;4.63;100.00;97166.61;2236677;79;20929;-61
2022/04/01 12:19:42;;;;;;;18.60;6.47;;;;;;;4.87;100.00;97172.48;2236916;79;20975;-61
2022/04/01 12:22:42;;;;;;;18.45;6.60;;;;;;;5.16;100.00;97184.06;2237014;80;20980;-61
2022/04/01 12:25:43;;;;;;;18.23;6.90;;;;;;;5.03;100.00;97168.43;2236389;79;21003;-61
2022/04/01 12:28:43;;;;;;;18.05;6.30;;;;;;;4.56;100.00;97164.52;2236761;79;20964;-61
2022/04/01 12:31:44;;;;;;;18.82;7.03;;;;;;;4.22;100.00;97181.70;2236775;79;21506;-61
2022/04/01 12:34:44;;;;;;;17.85;6.50;;;;;;;3.74;100.00;97187.17;2236844;79;21028;-61
2022/04/01 12:37:44;;;;;;;17.42;6.42;;;;;;;3.54;100.00;97190.13;2236605;79;21035;-61
2022/04/01 12:40:45;;;;;;;16.70;6.03;;;;;;;3.41;100.00;97189.53;2236588;79;21019;-61
2022/04/01 12:43:45;;;;;;;16.85;6.12;;;;;;;3.29;100.00;97192.84;2236829;79;21003;-61
2022/04/01 12:46:46;;;;;;;16.12;5.92;;;;;;;3.06;100.00;97189.80;2236870;79;21016;-61
2022/04/01 12:49:47;;;;;;;16.97;6.00;;;;;;;2.87;100.00;97191.75;2237000;79;21012;-61
2022/04/01 12:52:49;;;;;;;16.62;5.65;;;;;;;2.62;100.00;97199.58;2236600;79;20984;-61
2022/04/01 12:55:49;;;;;;;17.73;6.12;;;;;;;2.48;100.00;97198.20;2236760;79;21056;-61
2022/04/01 12:58:50;;;;;;;16.82;6.12;;;;;;;2.48;100.00;97193.03;2236759;79;21492;-61
2022/04/01 13:01:50;;;;;;;18.65;6.10;;;;;;;2.46;100.00;97194.84;2236606;79;20956;-61
2022/04/01 13:04:51;;;;;;;16.45;5.65;;;;;;;2.35;100.00;97200.15;2236879;79;20972;-61
2022/04/01 13:07:53;;;;;;;17.52;5.90;;;;;;;2.31;100.00;97196.52;2236452;79;21092;-61
2022/04/01 13:10:54;;;;;;;16.10;5.70;;;;;;;2.36;100.00;97195.83;2237086;79;21519;-60
2022/04/01 13:13:54;;;;;;;16.82;5.95;;;;;;;2.40;100.00;97194.28;2236535;79;21123;-61
2022/04/01 13:16:55;;;;;;;18.17;5.62;;;;;;;2.38;100.00;97195.27;2236933;79;21000;-61
2022/04/01 13:19:56;;;;;;;16.12;5.70;;;;;;;2.33;100.00;97189.06;2236695;79;21032;-60
2022/04/01 13:22:59;;;;;;;16.65;5.80;;;;;;;2.31;100.00;97195.23;2236617;79;21154;-60
2022/04/01 13:25:59;;;;;;;16.23;5.67;;;;;;;2.32;100.00;97202.91;2223566;80;21008;-60
2022/04/01 13:28:59;;;;;;;18.10;5.80;;;;;;;2.18;100.00;97202.80;2236101;79;21003;-60
2022/04/01 13:32:01;;;;;;;15.53;5.50;;;;;;;1.94;100.00;97213.53;2235296;79;21083;-60
2022/04/01 13:35:01;;;;;;;17.65;6.05;;;;;;;1.73;100.00;97204.66;2236132;79;21020;-61
2022/04/01 13:38:02;;;;;;;17.23;5.40;;;;;;;1.77;100.00;97194.16;2236744;79;21000;-60
2022/04/01 13:41:02;;;;;;;16.00;5.40;;;;;;;1.81;100.00;97209.89;2236756;79;20975;-60
2022/04/01 13:44:03;;;;;;;15.55;5.17;;;;;;;1.96;100.00;97208.28;2236725;79;20995;-61
2022/04/01 13:47:03;;;;;;;15.80;5.28;;;;;;;2.00;100.00;97205.92;2235847;79;21004;-61
2022/04/01 13:50:05;;;;;;;17.45;5.80;;;;;;;2.06;100.00;97197.36;2235952;79;21483;-61
2022/04/01 13:53:05;;;;;;;16.55;5.67;;;;;;;2.15;100.00;97190.86;2236028;79;21506;-61
2022/04/01 13:56:08;;;;;;;17.30;5.90;;;;;;;2.13;100.00;97197.06;2236034;79;21016;-60
2022/04/01 13:59:09;;;;;;;13.28;4.97;;;;;;;2.03;100.00;97199.28;2236421;79;20988;-60
2022/04/01 14:02:09;;;;;;;16.65;5.15;;;;;;;1.98;100.00;97194.80;2236064;79;21032;-61
2022/04/01 14:05:10;;;;;;;18.15;6.15;;;;;;;1.87;100.00;97210.42;2235907;79;20972;-60
2022/04/01 14:08:11;;;;;;;17.52;5.50;;;;;;;1.80;100.00;97205.66;2235948;79;20985;-60
2022/04/01 14:11:11;;;;;;;18.00;5.70;;;;;;;1.71;100.00;97197.45;2235823;79;21495;-60
2022/04/01 14:14:12;;;;;;;18.10;5.92;;;;;;;1.73;100.00;97204.66;2235759;79;21023;-61
2022/04/01 14:17:12;;;;;;;18.67;5.87;;;;;;;1.72;100.00;97200.86;2235804;79;21064;-60
2022/04/01 14:20:13;;;;;;;16.77;5.95;;;;;;;1.78;100.00;97218.66;2235943;79;21003;-60
2022/04/01 14:23:13;;;;;;;17.10;6.50;;;;;;;1.73;100.00;97195.61;2236039;79;21068;-60
2022/04/01 14:26:14;;;;;;;17.12;5.80;;;;;;;1.79;100.00;97206.56;2235460;79;21163;-61
2022/04/01 14:39:50;;;;;;;19.52;6.40;;;;;;;1.64;100.00;97214.62;2291676;77;22206;-60
2022/04/01 14:42:51;;;;;;;18.40;6.50;;;;;;;1.46;100.00;97212.05;2253027;79;20985;-61
2022/04/01 14:45:52;;;;;;;16.93;5.70;;;;;;;1.40;100.00;97221.88;2299594;77;21011;-61
2022/04/01 14:48:55;;;;;;;17.92;6.33;;;;;;;1.31;100.00;97219.30;2307178;77;21015;-60
2022/04/01 14:51:56;;;;;;;20.52;6.80;;;;;;;1.15;100.00;97226.92;2299211;77;20953;-60
2022/04/01 14:54:56;;;;;;;20.35;6.80;;;;;;;1.13;100.00;97229.59;2300378;77;21055;-60
2022/04/01 14:57:57;;;;;;;19.15;6.15;;;;;;;1.23;100.00;97226.58;2249561;79;21894;-60
2022/04/01 15:00:57;;;;;;;18.75;6.90;;;;;;;1.21;100.00;97224.89;2303188;77;20996;-61
2022/04/01 15:03:58;;;;;;;19.15;6.85;;;;;;;1.37;100.00;97230.61;2303829;77;20992;-60
2022/04/01 15:06:58;;;;;;;18.05;6.67;;;;;;;1.50;100.00;97231.66;2307251;77;21035;-61
2022/04/01 15:09:59;;;;;;;18.00;6.05;;;;;;;1.62;100.00;97235.84;2303610;77;20956;-60
2022/04/01 15:13:00;;;;;;;21.27;6.55;;;;;;;1.71;100.00;97234.93;2302640;77;20960;-61
2022/04/01 15:36:53;;;;;;;18.15;5.80;;;;;;;1.75;100.00;97244.64;2254456;79;22684;-61
2022/04/01 15:39:54;;;;;;;18.30;6.37;;;;;;;1.53;100.00;97253.47;2234010;80;21565;-60
2022/04/01 15:42:56;;;;;;;17.12;5.87;;;;;;;1.42;100.00;97257.50;2307164;77;21051;-60
2022/04/01 15:45:56;;;;;;;19.50;6.40;;;;;;;1.27;100.00;97260.39;2306860;77;20996;-60
2022/04/01 15:48:57;;;;;;;18.48;6.15;;;;;;;1.10;100.00;97255.56;2306824;77;21460;-60
2022/04/01 15:51:58;;;;;;;18.40;6.20;;;;;;;0.99;100.00;97256.09;2307142;77;20933;-60
2022/04/01 15:54:58;;;;;;;18.05;6.22;;;;;;;0.83;100.00;97248.67;2307102;77;20944;-60
2022/04/01 15:57:59;;;;;;;19.12;6.37;;;;;;;0.80;100.00;97259.14;2307131;77;20948;-60